Terminal Aerodrome Forecast
Issued by NWS Cleveland, OH

Home | Current Version | Previous Version | Graphics & Text | Print | Product List | Glossary On
Versions: 1 2 3 4 5 6 7 8 9 10 11 12 13 14 15 16 17 18
000
FTUS41 KCLE 222326
TAFERI
TAF
KERI 222326Z 2300/2324 27006KT 4SM BR BKN015
      TEMPO 2300/2301 -SHRA
     FM230300 27008KT P6SM BKN015
     FM231200 28005KT P6SM SKC
     FM231600 28007KT P6SM FEW200=

USA.gov is the U.S. government's official web portal to all federal, state and local government web resources and services.